sensor_id;sensor_type;location;lat;lon;timestamp;P1;durP1;ratioP1;P2;durP2;ratioP2
13319;SDS011;59599;47.608;12.190;2023-02-22T05:01:44;8.97;;;3.13;;
13319;SDS011;59599;47.608;12.190;2023-02-22T05:04:10;5.20;;;2.97;;
13319;SDS011;59599;47.608;12.190;2023-02-22T05:06:36;6.27;;;3.40;;
13319;SDS011;59599;47.608;12.190;2023-02-22T05:09:02;3.43;;;2.90;;
13319;SDS011;59599;47.608;12.190;2023-02-22T05:11:28;4.30;;;3.07;;
13319;SDS011;59599;47.608;12.190;2023-02-22T05:13:54;6.47;;;3.30;;
13319;SDS011;59599;47.608;12.190;2023-02-22T05:16:20;5.77;;;3.37;;
13319;SDS011;59599;47.608;12.190;2023-02-22T05:18:46;8.03;;;3.10;;
13319;SDS011;59599;47.608;12.190;2023-02-22T05:21:12;7.27;;;3.53;;
13319;SDS011;59599;47.608;12.190;2023-02-22T05:23:38;5.50;;;3.20;;
13319;SDS011;59599;47.608;12.190;2023-02-22T05:26:05;6.40;;;3.20;;
13319;SDS011;59599;47.608;12.190;2023-02-22T05:28:31;3.57;;;2.87;;
13319;SDS011;59599;47.608;12.190;2023-02-22T05:30:57;7.40;;;3.20;;
13319;SDS011;59599;47.608;12.190;2023-02-22T05:33:23;8.13;;;3.23;;
13319;SDS011;59599;47.608;12.190;2023-02-22T05:35:48;3.90;;;3.00;;
13319;SDS011;59599;47.608;12.190;2023-02-22T05:38:15;7.50;;;3.10;;
13319;SDS011;59599;47.608;12.190;2023-02-22T05:40:41;5.50;;;3.97;;
13319;SDS011;59599;47.608;12.190;2023-02-22T05:43:07;8.40;;;3.70;;
13319;SDS011;59599;47.608;12.190;2023-02-22T05:45:33;5.03;;;2.60;;
13319;SDS011;59599;47.608;12.190;2023-02-22T05:48:00;3.80;;;3.03;;
13319;SDS011;59599;47.608;12.190;2023-02-22T05:50:27;4.53;;;3.10;;
13319;SDS011;59599;47.608;12.190;2023-02-22T05:52:53;6.37;;;3.23;;
13319;SDS011;59599;47.608;12.190;2023-02-22T05:55:19;8.83;;;3.73;;
13319;SDS011;59599;47.608;12.190;2023-02-22T05:57:46;7.23;;;3.70;;
13319;SDS011;59599;47.608;12.190;2023-02-22T06:00:16;4.93;;;3.43;;
13319;SDS011;59599;47.608;12.190;2023-02-22T06:02:43;6.87;;;3.47;;
13319;SDS011;59599;47.608;12.190;2023-02-22T06:05:09;6.93;;;4.07;;
13319;SDS011;59599;47.608;12.190;2023-02-22T06:07:34;11.13;;;6.17;;
13319;SDS011;59599;47.608;12.190;2023-02-22T06:10:00;12.97;;;5.43;;
13319;SDS011;59599;47.608;12.190;2023-02-22T06:12:26;6.47;;;4.53;;
13319;SDS011;59599;47.608;12.190;2023-02-22T06:14:52;12.37;;;5.30;;
13319;SDS011;59599;47.608;12.190;2023-02-22T06:17:18;9.20;;;4.60;;
13319;SDS011;59599;47.608;12.190;2023-02-22T06:19:44;6.72;;;4.38;;
13319;SDS011;59599;47.608;12.190;2023-02-22T06:22:14;7.43;;;3.87;;
13319;SDS011;59599;47.608;12.190;2023-02-22T06:24:41;10.17;;;4.30;;
13319;SDS011;59599;47.608;12.190;2023-02-22T06:27:07;6.93;;;4.00;;
13319;SDS011;59599;47.608;12.190;2023-02-22T06:29:32;6.07;;;3.83;;
13319;SDS011;59599;47.608;12.190;2023-02-22T06:31:58;7.57;;;4.60;;
13319;SDS011;59599;47.608;12.190;2023-02-22T06:34:24;9.63;;;4.53;;
13319;SDS011;59599;47.608;12.190;2023-02-22T06:36:50;11.83;;;7.20;;
13319;SDS011;59599;47.608;12.190;2023-02-22T06:39:16;12.87;;;6.33;;
13319;SDS011;59599;47.608;12.190;2023-02-22T06:41:43;9.70;;;6.27;;
13319;SDS011;59599;47.608;12.190;2023-02-22T06:44:09;10.50;;;6.17;;
13319;SDS011;59599;47.608;12.190;2023-02-22T06:46:36;8.50;;;4.37;;
13319;SDS011;59599;47.608;12.190;2023-02-22T06:49:02;11.03;;;3.93;;
13319;SDS011;59599;47.608;12.190;2023-02-22T06:51:28;7.37;;;3.77;;
13319;SDS011;59599;47.608;12.190;2023-02-22T06:53:55;6.57;;;3.95;;
13319;SDS011;59599;47.608;12.190;2023-02-22T06:56:21;4.87;;;3.47;;
13319;SDS011;59599;47.608;12.190;2023-02-22T06:58:47;6.17;;;3.50;;
13319;SDS011;59599;47.608;12.190;2023-02-22T07:01:13;5.63;;;3.57;;
13319;SDS011;59599;47.608;12.190;2023-02-22T07:03:39;9.67;;;3.10;;
13319;SDS011;59599;47.608;12.190;2023-02-22T07:06:06;6.87;;;3.63;;
13319;SDS011;59599;47.608;12.190;2023-02-22T07:08:32;4.33;;;3.30;;
13319;SDS011;59599;47.608;12.190;2023-02-22T07:10:58;12.30;;;3.67;;
13319;SDS011;59599;47.608;12.190;2023-02-22T07:13:24;5.55;;;3.20;;
13319;SDS011;59599;47.608;12.190;2023-02-22T07:15:49;5.90;;;3.03;;
13319;SDS011;59599;47.608;12.190;2023-02-22T07:18:15;9.50;;;3.07;;
13319;SDS011;59599;47.608;12.190;2023-02-22T07:20:41;7.73;;;3.33;;
13319;SDS011;59599;47.608;12.190;2023-02-22T07:23:07;6.27;;;3.20;;
13319;SDS011;59599;47.608;12.190;2023-02-22T07:25:34;7.57;;;3.40;;
13319;SDS011;59599;47.608;12.190;2023-02-22T07:28:00;5.60;;;3.63;;
13319;SDS011;59599;47.608;12.190;2023-02-22T07:30:27;4.87;;;2.90;;
13319;SDS011;59599;47.608;12.190;2023-02-22T07:32:57;7.83;;;3.47;;
13319;SDS011;59599;47.608;12.190;2023-02-22T07:35:28;7.83;;;3.20;;
13319;SDS011;59599;47.608;12.190;2023-02-22T07:37:56;8.90;;;3.50;;
13319;SDS011;59599;47.608;12.190;2023-02-22T07:40:23;8.03;;;3.67;;
13319;SDS011;59599;47.608;12.190;2023-02-22T07:42:50;6.80;;;3.97;;
13319;SDS011;59599;47.608;12.190;2023-02-22T07:45:16;5.93;;;3.77;;
13319;SDS011;59599;47.608;12.190;2023-02-22T07:47:42;10.93;;;3.70;;
13319;SDS011;59599;47.608;12.190;2023-02-22T07:50:08;6.23;;;3.20;;
13319;SDS011;59599;47.608;12.190;2023-02-22T07:52:34;8.23;;;3.60;;
13319;SDS011;59599;47.608;12.190;2023-02-22T07:55:00;6.90;;;3.57;;
13319;SDS011;59599;47.608;12.190;2023-02-22T07:57:26;5.73;;;4.03;;
13319;SDS011;59599;47.608;12.190;2023-02-22T07:59:52;9.67;;;3.70;;
13319;SDS011;59599;47.608;12.190;2023-02-22T08:02:18;7.10;;;3.47;;
13319;SDS011;59599;47.608;12.190;2023-02-22T08:04:45;6.67;;;3.67;;
13319;SDS011;59599;47.608;12.190;2023-02-22T08:07:11;7.13;;;3.90;;
13319;SDS011;59599;47.608;12.190;2023-02-22T08:09:37;6.70;;;3.80;;
13319;SDS011;59599;47.608;12.190;2023-02-22T08:12:03;8.07;;;4.20;;
13319;SDS011;59599;47.608;12.190;2023-02-22T08:14:29;9.67;;;4.10;;
13319;SDS011;59599;47.608;12.190;2023-02-22T08:16:54;9.63;;;3.97;;
13319;SDS011;59599;47.608;12.190;2023-02-22T08:19:20;8.40;;;3.53;;
13319;SDS011;59599;47.608;12.190;2023-02-22T08:21:46;8.23;;;3.10;;
13319;SDS011;59599;47.608;12.190;2023-02-22T08:24:12;5.10;;;3.23;;
13319;SDS011;59599;47.608;12.190;2023-02-22T08:26:43;5.67;;;3.43;;
13319;SDS011;59599;47.608;12.190;2023-02-22T08:29:09;5.00;;;2.73;;
13319;SDS011;59599;47.608;12.190;2023-02-22T08:31:35;6.63;;;2.83;;
13319;SDS011;59599;47.608;12.190;2023-02-22T08:34:01;4.90;;;3.13;;
13319;SDS011;59599;47.608;12.190;2023-02-22T08:36:27;13.93;;;7.40;;
13319;SDS011;59599;47.608;12.190;2023-02-22T08:38:53;23.40;;;12.37;;
13319;SDS011;59599;47.608;12.190;2023-02-22T08:41:19;31.53;;;16.07;;
13319;SDS011;59599;47.608;12.190;2023-02-22T08:43:45;22.07;;;12.27;;
13319;SDS011;59599;47.608;12.190;2023-02-22T08:46:11;10.83;;;6.50;;
13319;SDS011;59599;47.608;12.190;2023-02-22T08:48:37;5.37;;;3.90;;
13319;SDS011;59599;47.608;12.190;2023-02-22T08:51:02;5.27;;;3.07;;
13319;SDS011;59599;47.608;12.190;2023-02-22T08:53:28;3.50;;;2.87;;
13319;SDS011;59599;47.608;12.190;2023-02-22T08:55:56;4.17;;;2.87;;
13319;SDS011;59599;47.608;12.190;2023-02-22T08:58:22;4.73;;;2.83;;
13319;SDS011;59599;47.608;12.190;2023-02-22T09:00:47;5.93;;;2.73;;
13319;SDS011;59599;47.608;12.190;2023-02-22T09:03:13;4.87;;;2.50;;
13319;SDS011;59599;47.608;12.190;2023-02-22T09:05:40;5.03;;;3.17;;
13319;SDS011;59599;47.608;12.190;2023-02-22T09:08:07;3.83;;;2.60;;
13319;SDS011;59599;47.608;12.190;2023-02-22T09:10:33;4.73;;;2.67;;
13319;SDS011;59599;47.608;12.190;2023-02-22T09:12:59;5.43;;;2.30;;
13319;SDS011;59599;47.608;12.190;2023-02-22T09:15:26;4.57;;;2.13;;
13319;SDS011;59599;47.608;12.190;2023-02-22T09:17:52;5.97;;;2.77;;
13319;SDS011;59599;47.608;12.190;2023-02-22T09:20:19;3.53;;;2.30;;
13319;SDS011;59599;47.608;12.190;2023-02-22T09:22:46;5.90;;;2.27;;
13319;SDS011;59599;47.608;12.190;2023-02-22T09:25:12;6.50;;;1.97;;
13319;SDS011;59599;47.608;12.190;2023-02-22T09:27:39;7.33;;;2.63;;
13319;SDS011;59599;47.608;12.190;2023-02-22T09:30:06;2.97;;;2.20;;
13319;SDS011;59599;47.608;12.190;2023-02-22T09:32:35;2.93;;;1.90;;
13319;SDS011;59599;47.608;12.190;2023-02-22T09:35:01;3.60;;;2.03;;
13319;SDS011;59599;47.608;12.190;2023-02-22T09:37:27;2.37;;;1.90;;
13319;SDS011;59599;47.608;12.190;2023-02-22T09:39:53;4.27;;;2.47;;
13319;SDS011;59599;47.608;12.190;2023-02-22T09:47:37;3.37;;;2.00;;
13319;SDS011;59599;47.608;12.190;2023-02-22T09:50:09;5.60;;;2.10;;
13319;SDS011;59599;47.608;12.190;2023-02-22T09:55:44;6.03;;;1.77;;
13319;SDS011;59599;47.608;12.190;2023-02-22T09:58:32;4.70;;;2.00;;
13319;SDS011;59599;47.608;12.190;2023-02-22T10:01:09;3.27;;;1.67;;
13319;SDS011;59599;47.608;12.190;2023-02-22T10:03:46;3.50;;;2.20;;
13319;SDS011;59599;47.608;12.190;2023-02-22T10:06:19;3.63;;;1.80;;
13319;SDS011;59599;47.608;12.190;2023-02-22T10:08:47;3.80;;;2.03;;
13319;SDS011;59599;47.608;12.190;2023-02-22T10:24:22;5.67;;;2.07;;
13319;SDS011;59599;47.608;12.190;2023-02-22T10:27:13;4.33;;;1.93;;
13319;SDS011;59599;47.608;12.190;2023-02-22T10:29:42;3.53;;;1.93;;
13319;SDS011;59599;47.608;12.190;2023-02-22T10:32:14;7.93;;;2.37;;
13319;SDS011;59599;47.608;12.190;2023-02-22T10:34:47;3.40;;;2.10;;
13319;SDS011;59599;47.608;12.190;2023-02-22T10:39:59;2.50;;;1.70;;
13319;SDS011;59599;47.608;12.190;2023-02-22T10:42:30;2.83;;;1.93;;
13319;SDS011;59599;47.608;12.190;2023-02-22T10:44:55;7.23;;;1.97;;
13319;SDS011;59599;47.608;12.190;2023-02-22T10:47:21;5.77;;;2.17;;
13319;SDS011;59599;47.608;12.190;2023-02-22T10:49:49;3.53;;;1.83;;
13319;SDS011;59599;47.608;12.190;2023-02-22T10:52:29;4.13;;;2.00;;
13319;SDS011;59599;47.608;12.190;2023-02-22T10:54:58;8.27;;;2.00;;
13319;SDS011;59599;47.608;12.190;2023-02-22T10:57:25;3.17;;;1.80;;
13319;SDS011;59599;47.608;12.190;2023-02-22T10:59:51;5.43;;;2.20;;
13319;SDS011;59599;47.608;12.190;2023-02-22T11:02:23;3.13;;;1.97;;
13319;SDS011;59599;47.608;12.190;2023-02-22T11:04:54;5.60;;;1.93;;
13319;SDS011;59599;47.608;12.190;2023-02-22T11:10:29;3.97;;;1.60;;
13319;SDS011;59599;47.608;12.190;2023-02-22T11:12:55;3.93;;;1.50;;
13319;SDS011;59599;47.608;12.190;2023-02-22T11:17:47;3.20;;;1.90;;
13319;SDS011;59599;47.608;12.190;2023-02-22T11:20:22;2.30;;;1.70;;
13319;SDS011;59599;47.608;12.190;2023-02-22T11:22:53;4.10;;;1.70;;
13319;SDS011;59599;47.608;12.190;2023-02-22T11:25:35;4.23;;;1.47;;
13319;SDS011;59599;47.608;12.190;2023-02-22T11:28:19;2.23;;;1.57;;
13319;SDS011;59599;47.608;12.190;2023-02-22T11:30:54;5.43;;;1.80;;
13319;SDS011;59599;47.608;12.190;2023-02-22T11:33:22;3.43;;;1.80;;
13319;SDS011;59599;47.608;12.190;2023-02-22T11:36:02;2.33;;;1.60;;
13319;SDS011;59599;47.608;12.190;2023-02-22T11:38:36;6.73;;;1.57;;
13319;SDS011;59599;47.608;12.190;2023-02-22T11:41:13;6.17;;;1.53;;
13319;SDS011;59599;47.608;12.190;2023-02-22T11:43:40;3.27;;;1.63;;
13319;SDS011;59599;47.608;12.190;2023-02-22T11:46:08;6.60;;;1.80;;
13319;SDS011;59599;47.608;12.190;2023-02-22T11:48:40;4.17;;;1.67;;
13319;SDS011;59599;47.608;12.190;2023-02-22T11:53:52;3.20;;;1.40;;
13319;SDS011;59599;47.608;12.190;2023-02-22T11:56:33;3.50;;;1.60;;
13319;SDS011;59599;47.608;12.190;2023-02-22T12:05:02;3.63;;;1.60;;
13319;SDS011;59599;47.608;12.190;2023-02-22T12:13:01;5.47;;;1.40;;
13319;SDS011;59599;47.608;12.190;2023-02-22T12:18:20;6.40;;;2.20;;
13319;SDS011;59599;47.608;12.190;2023-02-22T12:21:12;4.50;;;1.90;;
13319;SDS011;59599;47.608;12.190;2023-02-22T12:23:44;3.07;;;1.83;;
13319;SDS011;59599;47.608;12.190;2023-02-22T12:28:55;5.40;;;1.47;;
13319;SDS011;59599;47.608;12.190;2023-02-22T12:31:41;2.03;;;1.50;;
13319;SDS011;59599;47.608;12.190;2023-02-22T12:34:20;4.82;;;1.60;;
13319;SDS011;59599;47.608;12.190;2023-02-22T12:37:28;6.13;;;1.30;;
13319;SDS011;59599;47.608;12.190;2023-02-22T12:48:17;2.50;;;1.58;;
13319;SDS011;59599;47.608;12.190;2023-02-22T12:50:57;1.85;;;1.23;;
13319;SDS011;59599;47.608;12.190;2023-02-22T12:53:30;3.22;;;1.40;;
13319;SDS011;59599;47.608;12.190;2023-02-22T12:56:14;3.28;;;1.10;;
13319;SDS011;59599;47.608;12.190;2023-02-22T12:58:53;1.75;;;1.20;;
13319;SDS011;59599;47.608;12.190;2023-02-22T13:01:22;3.05;;;1.08;;
13319;SDS011;59599;47.608;12.190;2023-02-22T13:03:49;5.90;;;1.40;;
13319;SDS011;59599;47.608;12.190;2023-02-22T13:09:32;3.17;;;1.83;;
13319;SDS011;59599;47.608;12.190;2023-02-22T13:14:59;2.53;;;1.30;;
13319;SDS011;59599;47.608;12.190;2023-02-22T13:25:23;3.67;;;1.25;;
13319;SDS011;59599;47.608;12.190;2023-02-22T13:27:58;6.10;;;1.50;;
13319;SDS011;59599;47.608;12.190;2023-02-22T13:30:35;3.03;;;1.20;;
13319;SDS011;59599;47.608;12.190;2023-02-22T13:38:44;3.13;;;1.17;;
13319;SDS011;59599;47.608;12.190;2023-02-22T13:50:14;5.63;;;1.40;;
13319;SDS011;59599;47.608;12.190;2023-02-22T13:52:43;1.73;;;1.58;;
13319;SDS011;59599;47.608;12.190;2023-02-22T13:55:16;2.45;;;1.17;;
13319;SDS011;59599;47.608;12.190;2023-02-22T13:57:45;3.17;;;1.55;;
13319;SDS011;59599;47.608;12.190;2023-02-22T14:13:11;2.63;;;1.70;;
13319;SDS011;59599;47.608;12.190;2023-02-22T14:18:24;2.70;;;1.42;;
13319;SDS011;59599;47.608;12.190;2023-02-22T14:26:27;3.67;;;1.58;;
13319;SDS011;59599;47.608;12.190;2023-02-22T14:34:18;2.88;;;1.48;;
13319;SDS011;59599;47.608;12.190;2023-02-22T14:36:57;3.17;;;1.60;;
13319;SDS011;59599;47.608;12.190;2023-02-22T14:39:33;4.80;;;1.83;;
13319;SDS011;59599;47.608;12.190;2023-02-22T14:45:25;2.83;;;1.85;;
13319;SDS011;59599;47.608;12.190;2023-02-22T14:48:05;3.65;;;1.88;;
13319;SDS011;59599;47.608;12.190;2023-02-22T14:50:41;4.03;;;1.40;;
13319;SDS011;59599;47.608;12.190;2023-02-22T14:53:26;3.90;;;1.83;;
13319;SDS011;59599;47.608;12.190;2023-02-22T14:55:58;4.72;;;1.55;;
13319;SDS011;59599;47.608;12.190;2023-02-22T14:58:43;4.20;;;1.63;;
13319;SDS011;59599;47.608;12.190;2023-02-22T15:03:57;4.25;;;1.70;;
13319;SDS011;59599;47.608;12.190;2023-02-22T15:06:26;6.43;;;2.22;;
13319;SDS011;59599;47.608;12.190;2023-02-22T15:11:51;4.75;;;1.95;;
13319;SDS011;59599;47.608;12.190;2023-02-22T15:14:23;3.85;;;1.92;;
13319;SDS011;59599;47.608;12.190;2023-02-22T15:16:53;4.85;;;2.00;;
13319;SDS011;59599;47.608;12.190;2023-02-22T15:19:23;5.53;;;2.33;;
13319;SDS011;59599;47.608;12.190;2023-02-22T15:21:54;3.92;;;2.00;;
13319;SDS011;59599;47.608;12.190;2023-02-22T15:24:22;4.22;;;1.92;;
13319;SDS011;59599;47.608;12.190;2023-02-22T15:26:50;4.60;;;2.03;;
13319;SDS011;59599;47.608;12.190;2023-02-22T15:29:21;5.30;;;1.98;;
13319;SDS011;59599;47.608;12.190;2023-02-22T15:31:50;3.90;;;2.35;;
13319;SDS011;59599;47.608;12.190;2023-02-22T15:34:21;4.50;;;2.17;;
13319;SDS011;59599;47.608;12.190;2023-02-22T15:36:51;7.07;;;2.20;;
13319;SDS011;59599;47.608;12.190;2023-02-22T15:39:19;5.33;;;2.53;;
13319;SDS011;59599;47.608;12.190;2023-02-22T15:41:49;5.40;;;2.33;;
13319;SDS011;59599;47.608;12.190;2023-02-22T15:44:33;5.13;;;2.47;;
13319;SDS011;59599;47.608;12.190;2023-02-22T15:46:59;4.97;;;2.83;;
13319;SDS011;59599;47.608;12.190;2023-02-22T15:49:25;5.13;;;2.40;;
13319;SDS011;59599;47.608;12.190;2023-02-22T15:52:03;5.47;;;2.53;;
13319;SDS011;59599;47.608;12.190;2023-02-22T15:54:38;4.40;;;2.77;;
13319;SDS011;59599;47.608;12.190;2023-02-22T15:57:05;5.70;;;2.77;;
13319;SDS011;59599;47.608;12.190;2023-02-22T15:59:31;5.37;;;2.77;;
13319;SDS011;59599;47.608;12.190;2023-02-22T16:01:59;6.50;;;2.57;;
13319;SDS011;59599;47.608;12.190;2023-02-22T16:04:26;8.27;;;3.40;;
13319;SDS011;59599;47.608;12.190;2023-02-22T16:07:01;8.37;;;2.93;;
13319;SDS011;59599;47.608;12.190;2023-02-22T16:09:31;5.17;;;2.77;;
13319;SDS011;59599;47.608;12.190;2023-02-22T16:14:47;4.50;;;2.53;;
13319;SDS011;59599;47.608;12.190;2023-02-22T16:19:52;10.43;;;2.97;;
13319;SDS011;59599;47.608;12.190;2023-02-22T16:22:29;6.50;;;3.00;;
13319;SDS011;59599;47.608;12.190;2023-02-22T16:25:13;4.70;;;3.33;;
13319;SDS011;59599;47.608;12.190;2023-02-22T16:27:46;7.67;;;4.00;;
13319;SDS011;59599;47.608;12.190;2023-02-22T16:32:42;22.37;;;14.37;;
13319;SDS011;59599;47.608;12.190;2023-02-22T16:35:08;12.93;;;9.60;;
13319;SDS011;59599;47.608;12.190;2023-02-22T16:37:42;11.70;;;8.33;;
13319;SDS011;59599;47.608;12.190;2023-02-22T16:40:11;13.30;;;8.10;;
13319;SDS011;59599;47.608;12.190;2023-02-22T16:42:46;14.30;;;7.70;;
13319;SDS011;59599;47.608;12.190;2023-02-22T16:45:15;13.63;;;7.33;;
13319;SDS011;59599;47.608;12.190;2023-02-22T16:47:41;9.70;;;6.50;;
13319;SDS011;59599;47.608;12.190;2023-02-22T16:50:07;8.87;;;6.57;;
13319;SDS011;59599;47.608;12.190;2023-02-22T16:52:34;10.63;;;6.53;;
13319;SDS011;59599;47.608;12.190;2023-02-22T16:55:01;9.40;;;5.50;;
13319;SDS011;59599;47.608;12.190;2023-02-22T16:57:27;8.70;;;4.80;;
13319;SDS011;59599;47.608;12.190;2023-02-22T16:59:56;9.80;;;4.30;;
13319;SDS011;59599;47.608;12.190;2023-02-22T17:02:22;23.77;;;5.57;;
13319;SDS011;59599;47.608;12.190;2023-02-22T17:04:47;9.77;;;5.00;;
13319;SDS011;59599;47.608;12.190;2023-02-22T17:07:20;9.70;;;6.30;;
13319;SDS011;59599;47.608;12.190;2023-02-22T17:09:54;11.47;;;7.90;;
13319;SDS011;59599;47.608;12.190;2023-02-22T17:12:22;11.30;;;7.03;;
13319;SDS011;59599;47.608;12.190;2023-02-22T17:14:48;8.30;;;5.07;;
13319;SDS011;59599;47.608;12.190;2023-02-22T17:17:14;5.33;;;4.07;;
13319;SDS011;59599;47.608;12.190;2023-02-22T17:19:40;13.23;;;5.43;;
13319;SDS011;59599;47.608;12.190;2023-02-22T17:22:08;10.97;;;5.97;;
13319;SDS011;59599;47.608;12.190;2023-02-22T17:24:34;11.00;;;7.90;;
13319;SDS011;59599;47.608;12.190;2023-02-22T17:27:00;13.83;;;9.50;;
13319;SDS011;59599;47.608;12.190;2023-02-22T17:29:26;15.50;;;7.80;;
13319;SDS011;59599;47.608;12.190;2023-02-22T17:31:53;9.27;;;6.23;;
13319;SDS011;59599;47.608;12.190;2023-02-22T17:34:19;11.07;;;6.97;;
13319;SDS011;59599;47.608;12.190;2023-02-22T17:36:45;10.27;;;6.63;;
13319;SDS011;59599;47.608;12.190;2023-02-22T17:39:11;15.97;;;7.60;;
13319;SDS011;59599;47.608;12.190;2023-02-22T17:41:37;13.50;;;7.20;;
13319;SDS011;59599;47.608;12.190;2023-02-22T17:44:02;12.13;;;8.57;;
13319;SDS011;59599;47.608;12.190;2023-02-22T17:46:28;15.20;;;9.20;;
13319;SDS011;59599;47.608;12.190;2023-02-22T17:48:54;14.47;;;9.83;;
13319;SDS011;59599;47.608;12.190;2023-02-22T17:51:21;14.67;;;8.73;;
13319;SDS011;59599;47.608;12.190;2023-02-22T17:53:48;18.10;;;9.27;;
13319;SDS011;59599;47.608;12.190;2023-02-22T17:56:14;14.00;;;8.27;;
13319;SDS011;59599;47.608;12.190;2023-02-22T17:58:42;13.70;;;8.63;;
13319;SDS011;59599;47.608;12.190;2023-02-22T18:01:22;11.33;;;8.77;;
13319;SDS011;59599;47.608;12.190;2023-02-22T18:03:57;15.33;;;9.47;;
13319;SDS011;59599;47.608;12.190;2023-02-22T18:06:25;20.97;;;11.53;;
13319;SDS011;59599;47.608;12.190;2023-02-22T18:08:53;17.00;;;10.77;;
13319;SDS011;59599;47.608;12.190;2023-02-22T18:11:19;16.17;;;10.00;;
13319;SDS011;59599;47.608;12.190;2023-02-22T18:13:48;15.03;;;9.37;;
13319;SDS011;59599;47.608;12.190;2023-02-22T18:16:14;18.23;;;10.17;;
13319;SDS011;59599;47.608;12.190;2023-02-22T18:18:40;18.70;;;10.17;;
13319;SDS011;59599;47.608;12.190;2023-02-22T18:21:07;16.77;;;9.73;;
13319;SDS011;59599;47.608;12.190;2023-02-22T18:23:33;15.50;;;9.97;;
13319;SDS011;59599;47.608;12.190;2023-02-22T18:25:59;17.33;;;9.07;;
13319;SDS011;59599;47.608;12.190;2023-02-22T18:28:26;15.27;;;9.17;;
13319;SDS011;59599;47.608;12.190;2023-02-22T18:30:55;13.83;;;9.50;;
13319;SDS011;59599;47.608;12.190;2023-02-22T18:33:22;16.57;;;9.70;;
13319;SDS011;59599;47.608;12.190;2023-02-22T18:35:49;13.67;;;9.07;;
13319;SDS011;59599;47.608;12.190;2023-02-22T18:38:16;16.30;;;7.67;;
13319;SDS011;59599;47.608;12.190;2023-02-22T18:40:56;14.83;;;7.90;;
13319;SDS011;59599;47.608;12.190;2023-02-22T18:43:26;12.80;;;7.70;;
13319;SDS011;59599;47.608;12.190;2023-02-22T18:45:52;9.57;;;6.77;;
13319;SDS011;59599;47.608;12.190;2023-02-22T18:48:18;11.53;;;7.47;;
13319;SDS011;59599;47.608;12.190;2023-02-22T18:50:44;12.73;;;7.33;;
13319;SDS011;59599;47.608;12.190;2023-02-22T18:53:10;11.63;;;6.70;;
13319;SDS011;59599;47.608;12.190;2023-02-22T18:55:35;10.37;;;5.40;;
13319;SDS011;59599;47.608;12.190;2023-02-22T18:58:02;6.77;;;5.07;;
13319;SDS011;59599;47.608;12.190;2023-02-22T19:00:32;10.73;;;5.30;;
13319;SDS011;59599;47.608;12.190;2023-02-22T19:02:58;8.90;;;4.73;;
13319;SDS011;59599;47.608;12.190;2023-02-22T19:05:24;6.97;;;4.13;;
13319;SDS011;59599;47.608;12.190;2023-02-22T19:07:50;7.60;;;4.83;;
13319;SDS011;59599;47.608;12.190;2023-02-22T19:10:16;5.97;;;4.07;;
13319;SDS011;59599;47.608;12.190;2023-02-22T19:12:42;8.73;;;4.93;;
13319;SDS011;59599;47.608;12.190;2023-02-22T19:15:08;6.20;;;4.47;;
13319;SDS011;59599;47.608;12.190;2023-02-22T19:17:36;7.40;;;4.03;;
13319;SDS011;59599;47.608;12.190;2023-02-22T19:20:03;7.60;;;4.50;;
13319;SDS011;59599;47.608;12.190;2023-02-22T19:22:34;7.83;;;5.97;;
13319;SDS011;59599;47.608;12.190;2023-02-22T19:25:00;6.33;;;5.23;;
13319;SDS011;59599;47.608;12.190;2023-02-22T19:27:28;10.80;;;4.80;;
13319;SDS011;59599;47.608;12.190;2023-02-22T19:29:54;10.10;;;4.97;;
13319;SDS011;59599;47.608;12.190;2023-02-22T19:32:20;7.20;;;4.90;;
13319;SDS011;59599;47.608;12.190;2023-02-22T19:34:49;8.90;;;4.87;;
13319;SDS011;59599;47.608;12.190;2023-02-22T19:37:16;11.63;;;6.57;;
13319;SDS011;59599;47.608;12.190;2023-02-22T19:39:42;13.03;;;7.13;;
13319;SDS011;59599;47.608;12.190;2023-02-22T19:42:08;13.50;;;7.40;;
13319;SDS011;59599;47.608;12.190;2023-02-22T19:44:34;14.57;;;7.33;;
13319;SDS011;59599;47.608;12.190;2023-02-22T19:47:00;13.10;;;7.10;;
13319;SDS011;59599;47.608;12.190;2023-02-22T19:49:26;14.03;;;7.23;;
13319;SDS011;59599;47.608;12.190;2023-02-22T19:51:53;26.47;;;11.23;;
13319;SDS011;59599;47.608;12.190;2023-02-22T19:54:21;26.70;;;11.43;;
13319;SDS011;59599;47.608;12.190;2023-02-22T19:56:47;14.77;;;8.27;;
13319;SDS011;59599;47.608;12.190;2023-02-22T19:59:17;18.93;;;9.40;;
13319;SDS011;59599;47.608;12.190;2023-02-22T20:01:46;22.67;;;13.20;;
13319;SDS011;59599;47.608;12.190;2023-02-22T20:04:13;23.53;;;14.90;;
13319;SDS011;59599;47.608;12.190;2023-02-22T20:06:42;15.17;;;9.10;;
13319;SDS011;59599;47.608;12.190;2023-02-22T20:09:12;15.43;;;10.07;;
13319;SDS011;59599;47.608;12.190;2023-02-22T20:11:41;18.40;;;10.80;;
13319;SDS011;59599;47.608;12.190;2023-02-22T20:14:07;19.23;;;7.77;;
13319;SDS011;59599;47.608;12.190;2023-02-22T20:16:34;12.50;;;7.20;;
13319;SDS011;59599;47.608;12.190;2023-02-22T20:19:00;12.80;;;6.40;;
13319;SDS011;59599;47.608;12.190;2023-02-22T20:21:27;13.33;;;7.23;;
13319;SDS011;59599;47.608;12.190;2023-02-22T20:23:54;13.80;;;7.13;;
13319;SDS011;59599;47.608;12.190;2023-02-22T20:26:23;7.30;;;4.90;;
13319;SDS011;59599;47.608;12.190;2023-02-22T20:28:50;10.17;;;4.20;;
13319;SDS011;59599;47.608;12.190;2023-02-22T20:31:16;8.93;;;4.10;;
13319;SDS011;59599;47.608;12.190;2023-02-22T20:33:44;8.77;;;4.03;;
13319;SDS011;59599;47.608;12.190;2023-02-22T20:36:13;7.50;;;4.57;;
13319;SDS011;59599;47.608;12.190;2023-02-22T20:38:39;8.93;;;4.77;;
13319;SDS011;59599;47.608;12.190;2023-02-22T20:41:12;8.00;;;4.47;;
13319;SDS011;59599;47.608;12.190;2023-02-22T20:43:38;9.03;;;4.83;;
13319;SDS011;59599;47.608;12.190;2023-02-22T20:46:04;8.17;;;5.30;;
13319;SDS011;59599;47.608;12.190;2023-02-22T20:48:31;7.63;;;4.37;;
13319;SDS011;59599;47.608;12.190;2023-02-22T20:51:03;9.13;;;4.83;;
13319;SDS011;59599;47.608;12.190;2023-02-22T20:53:30;13.30;;;4.80;;
13319;SDS011;59599;47.608;12.190;2023-02-22T20:55:57;7.97;;;3.70;;
13319;SDS011;59599;47.608;12.190;2023-02-22T20:58:23;9.00;;;3.73;;
13319;SDS011;59599;47.608;12.190;2023-02-22T21:00:49;5.43;;;3.80;;
13319;SDS011;59599;47.608;12.190;2023-02-22T21:03:15;5.07;;;3.53;;
13319;SDS011;59599;47.608;12.190;2023-02-22T21:05:41;7.53;;;4.10;;
13319;SDS011;59599;47.608;12.190;2023-02-22T21:08:07;6.83;;;3.73;;
13319;SDS011;59599;47.608;12.190;2023-02-22T21:10:38;6.03;;;4.00;;
13319;SDS011;59599;47.608;12.190;2023-02-22T21:13:06;7.60;;;3.87;;
13319;SDS011;59599;47.608;12.190;2023-02-22T21:15:35;5.87;;;3.90;;
13319;SDS011;59599;47.608;12.190;2023-02-22T21:18:02;7.80;;;2.90;;
13319;SDS011;59599;47.608;12.190;2023-02-22T21:20:28;6.30;;;3.40;;
13319;SDS011;59599;47.608;12.190;2023-02-22T21:22:54;6.00;;;3.70;;
13319;SDS011;59599;47.608;12.190;2023-02-22T21:25:20;8.80;;;4.67;;
13319;SDS011;59599;47.608;12.190;2023-02-22T21:27:46;15.87;;;8.03;;
13319;SDS011;59599;47.608;12.190;2023-02-22T21:30:12;15.73;;;9.80;;
13319;SDS011;59599;47.608;12.190;2023-02-22T21:32:39;16.93;;;8.17;;
13319;SDS011;59599;47.608;12.190;2023-02-22T21:35:05;17.73;;;7.40;;
13319;SDS011;59599;47.608;12.190;2023-02-22T21:37:31;12.93;;;6.60;;
13319;SDS011;59599;47.608;12.190;2023-02-22T21:40:00;14.90;;;7.13;;
13319;SDS011;59599;47.608;12.190;2023-02-22T21:42:34;13.77;;;7.00;;
13319;SDS011;59599;47.608;12.190;2023-02-22T21:45:00;10.20;;;6.03;;
13319;SDS011;59599;47.608;12.190;2023-02-22T21:47:26;10.83;;;6.40;;
13319;SDS011;59599;47.608;12.190;2023-02-22T21:49:55;7.50;;;4.10;;